Welkom op de website van Weerstation Hoek van Holland.

Onweer radar Meer informatie blitzortung!


Regen radar Meer informatie rain snow radar



METAR rapporten vliegvelden

   
EHRD - Rotterdam International Airport, NL
Afstand tot: Oost 31 km
Gewijzigd: 20-04-2019 18:25
Helder  
Helder  
   Wind: NO 13 km/h
Wind: NO 13 km/h
Temperatuur: 22°C
Dauwpunt: 7°C
Vochtigheid: 38%
Barometer: 1026 hPa
Bewolking: Clear
Zicht: meer dan 10 km
Bewolking: Helder ft
EHRD 201625Z AUTO 04007KT 360V070 9999 NCD 22/07 Q1026 NOSIG
EHAM - Amsterdam Schiphol, NL
Afstand tot: Noord 17 km
Gewijzigd: 20-04-2019 18:25
Helder  
Helder  
   Wind: NO 20.4 km/h
Wind: NO 20.4 km/h
Temperatuur: 22°C
Dauwpunt: 4°C
Vochtigheid: 31%
Barometer: 1027 hPa
Zicht: meer dan 10 km
Bewolking: Helder ft
EHAM 201625Z 04011KT 010V070 CAVOK 22/04 Q1027 NOSIG
EBAW - Antwerpen/Deurne, B
Afstand tot: Zuid 138 km
Gewijzigd: 20-04-2019 18:20
Helder  
Helder  
   Wind: NO 14.8 km/h
Wind: NO 14.8 km/h
Temperatuur: 24°C
Dauwpunt: 4°C
Vochtigheid: 27%
Barometer: 1026 hPa
Zicht: meer dan 10 km
Bewolking: Helder ft
EBAW 201620Z 04008KT CAVOK 24/04 Q1026 NOSIG
EHEH - Eindhoven, NL
Afstand tot: OZO 140 km
Gewijzigd: 20-04-2019 18:25
Helder  
Helder  
   Wind: ONO 13 km/h
Wind: ONO 13 km/h
Temperatuur: 24°C
Dauwpunt: 2°C
Vochtigheid: 24%
Barometer: 1026 hPa
Bewolking: Clear
Zicht: meer dan 10 km
Bewolking: Helder ft
EHEH 201625Z AUTO 07007KT 020V140 9999 NCD 24/02 Q1026 BLU 05009KT CAVOK
  

Script ontwikkeld door  Saratoga-weather.org Aangepast voor de template door  Weerstation Leuven

Apparatuur in gebruik:

Weerstation
Davis VP2

Weerprogramma
Meteobridge

Weercomputer
meteobridge met meteostick

Webleverancier
Strato

Davis VP2

Meteobridge

meteobridge met meteostick

Strato